createdAt,value
2018-08-03T00:00:51.313Z,96453.50
2018-08-03T00:03:22.259Z,96448.71
2018-08-03T00:05:52.692Z,96446.66
2018-08-03T00:08:23.086Z,96445.25
2018-08-03T00:10:53.470Z,96444.29
2018-08-03T00:13:24.044Z,96442.42
2018-08-03T00:15:54.456Z,96441.21
2018-08-03T00:18:25.226Z,96437.08
2018-08-03T00:20:56.075Z,96430.09
2018-08-03T00:23:26.495Z,96431.31
2018-08-03T00:25:57.027Z,96430.36
2018-08-03T00:28:27.077Z,96424.16
2018-08-03T00:30:57.793Z,96427.36
2018-08-03T00:33:28.582Z,96424.52
2018-08-03T00:35:59.385Z,96419.59
2018-08-03T00:38:29.954Z,96419.81
2018-08-03T00:41:00.408Z,96407.14
2018-08-03T00:43:30.858Z,96415.78
2018-08-03T00:46:01.607Z,96414.09
2018-08-03T00:48:32.053Z,96415.73
2018-08-03T00:51:02.437Z,96411.73
2018-08-03T00:53:33.242Z,96409.57
2018-08-03T00:56:04.199Z,96411.97
2018-08-03T00:58:34.654Z,96412.21
2018-08-03T01:01:05.274Z,96402.73
2018-08-03T01:03:35.680Z,96411.66
2018-08-03T01:06:06.232Z,96406.00
2018-08-03T01:08:37.529Z,96406.98
2018-08-03T01:11:08.018Z,96409.27
2018-08-03T01:13:38.611Z,96403.70
2018-08-03T01:16:08.977Z,96412.50
2018-08-03T01:18:39.385Z,96413.84
2018-08-03T01:21:10.202Z,96417.41
2018-08-03T01:23:41.007Z,96425.52
2018-08-03T01:26:11.559Z,96421.45
2018-08-03T01:28:42.254Z,96418.14
2018-08-03T01:31:12.722Z,96419.09
2018-08-03T01:33:43.229Z,96414.41
2018-08-03T01:36:13.692Z,96411.95
2018-08-03T01:38:44.351Z,96411.16
2018-08-03T01:41:14.830Z,96407.76
2018-08-03T01:43:46.277Z,96414.40
2018-08-03T01:46:17.159Z,96417.09
2018-08-03T01:48:47.573Z,96409.00
2018-08-03T02:02:06.153Z,96401.59
2018-08-03T02:04:36.573Z,96405.39
2018-08-03T02:07:07.009Z,96404.67
2018-08-03T02:09:37.471Z,96397.33
2018-08-03T02:12:07.953Z,96399.01
2018-08-03T02:14:38.705Z,96394.25
2018-08-03T02:17:09.251Z,96395.92
2018-08-03T02:19:39.688Z,96393.50
2018-08-03T02:22:10.444Z,96392.79
2018-08-03T02:24:41.201Z,96389.48
2018-08-03T02:27:11.824Z,96388.61
2018-08-03T02:29:42.323Z,96384.20
2018-08-03T02:32:12.779Z,96380.72
2018-08-03T02:34:43.623Z,96381.50
2018-08-03T02:37:14.091Z,96383.34
2018-08-03T02:39:44.632Z,96376.49
2018-08-03T02:42:15.099Z,96376.09
2018-08-03T02:44:45.644Z,96371.02
2018-08-03T02:47:16.067Z,96371.02
2018-08-03T02:49:46.477Z,96374.11
2018-08-03T02:56:34.939Z,96373.94
2018-08-03T02:59:05.471Z,96378.84
2018-08-03T03:01:36.251Z,96381.89
2018-08-03T03:04:07.239Z,96387.99
2018-08-03T03:10:14.294Z,96384.27
2018-08-03T03:12:44.719Z,96387.92
2018-08-03T03:15:15.285Z,96382.71
2018-08-03T03:17:46.089Z,96386.44
2018-08-03T03:20:16.555Z,96383.88
2018-08-03T03:23:35.042Z,96387.14
2018-08-03T03:26:05.447Z,96382.56
2018-08-03T03:28:35.861Z,96386.81
2018-08-03T03:31:06.322Z,96384.05
2018-08-03T03:33:36.874Z,96389.53
2018-08-03T03:36:07.437Z,96387.29
2018-08-03T03:38:37.935Z,96389.11
2018-08-03T03:41:08.371Z,96392.66
2018-08-03T03:43:38.991Z,96400.95
2018-08-03T03:46:09.911Z,96391.61
2018-08-03T03:48:40.319Z,96395.91
2018-08-03T03:51:10.746Z,96394.33
2018-08-03T03:53:41.238Z,96397.88
2018-08-03T03:56:12.758Z,96397.83
2018-08-03T03:58:43.469Z,96397.14
2018-08-03T04:01:14.247Z,96394.01
2018-08-03T04:03:44.678Z,96389.53
2018-08-03T04:06:15.227Z,96393.91
2018-08-03T04:08:45.789Z,96387.87
2018-08-03T04:11:16.278Z,96392.12
2018-08-03T04:13:46.619Z,96388.33
2018-08-03T04:16:17.105Z,96400.98
2018-08-03T04:18:47.520Z,96393.18
2018-08-03T04:21:18.385Z,96394.61
2018-08-03T04:23:48.813Z,96395.44
2018-08-03T04:26:19.271Z,96393.95
2018-08-03T04:28:49.643Z,96387.21
2018-08-03T04:31:20.781Z,96391.19
2018-08-03T04:33:51.287Z,96390.26
2018-08-03T04:36:22.019Z,96393.93
2018-08-03T04:38:52.463Z,96388.57
2018-08-03T04:41:23.096Z,96399.30
2018-08-03T04:43:53.503Z,96406.28
2018-08-03T04:46:24.083Z,96402.44
2018-08-03T04:48:54.502Z,96403.52
2018-08-03T04:51:24.981Z,96400.97
2018-08-03T04:53:55.382Z,96405.13
2018-08-03T04:56:25.786Z,96403.52
2018-08-03T04:58:56.474Z,96404.80
2018-08-03T05:01:26.876Z,96402.20
2018-08-03T05:03:57.410Z,96408.73
2018-08-03T05:06:27.873Z,96404.66
2018-08-03T05:08:58.336Z,96408.22
2018-08-03T05:11:29.086Z,96411.48
2018-08-03T05:13:59.558Z,96412.23
2018-08-03T05:16:29.918Z,96409.27
2018-08-03T05:19:01.758Z,96411.57
2018-08-03T05:21:32.404Z,96404.74
2018-08-03T05:24:02.806Z,96410.89
2018-08-03T05:26:33.451Z,96418.17
2018-08-03T05:29:03.878Z,96420.73
2018-08-03T05:31:34.293Z,96421.64
2018-08-03T05:34:04.762Z,96422.35
2018-08-03T05:36:35.188Z,96419.89
2018-08-03T05:39:09.012Z,96415.82
2018-08-03T05:41:40.056Z,96416.00
2018-08-03T05:44:10.432Z,96415.86
2018-08-03T05:46:41.285Z,96411.05
2018-08-03T05:49:11.649Z,96411.63
2018-08-03T05:51:42.388Z,96417.20
2018-08-03T05:54:13.125Z,96422.80
2018-08-03T05:56:43.571Z,96412.55
2018-08-03T05:59:14.057Z,96420.39
2018-08-03T06:01:44.437Z,96423.64
2018-08-03T06:04:14.756Z,96427.83
2018-08-03T06:06:45.153Z,96419.37
2018-08-03T06:09:15.886Z,96421.09
2018-08-03T06:11:47.325Z,96424.69
2018-08-03T06:14:17.826Z,96421.30
2018-08-03T06:16:48.261Z,96421.92
2018-08-03T06:19:18.670Z,96413.23
2018-08-03T06:21:49.146Z,96420.94
2018-08-03T06:24:19.556Z,96417.03
2018-08-03T06:26:50.601Z,96414.44
2018-08-03T06:29:21.168Z,96412.75
2018-08-03T06:31:51.629Z,96413.02
2018-08-03T06:34:22.242Z,96416.13
2018-08-03T06:36:52.766Z,96425.09
2018-08-03T06:39:23.410Z,96421.38
2018-08-03T06:41:54.296Z,96422.17
2018-08-03T06:44:24.706Z,96426.35
2018-08-03T06:46:55.292Z,96426.64
2018-08-03T06:49:25.370Z,96431.55
2018-08-03T06:51:55.884Z,96422.93
2018-08-03T06:54:26.381Z,96422.64
2018-08-03T06:56:56.862Z,96422.42
2018-08-03T06:59:27.275Z,96424.78
2018-08-03T07:01:57.984Z,96424.27
2018-08-03T07:04:28.575Z,96427.45
2018-08-03T07:06:59.167Z,96423.39
2018-08-03T07:09:29.729Z,96433.19
2018-08-03T07:12:00.191Z,96430.49
2018-08-03T07:14:30.618Z,96429.34
2018-08-03T07:17:01.338Z,96429.18
2018-08-03T07:19:32.556Z,96424.30
2018-08-03T07:22:03.455Z,96428.48
2018-08-03T07:24:33.934Z,96426.05
2018-08-03T07:27:04.399Z,96428.50
2018-08-03T07:29:34.850Z,96426.37
2018-08-03T07:32:05.696Z,96429.06
2018-08-03T07:34:36.404Z,96425.09
2018-08-03T07:37:07.001Z,96421.53
2018-08-03T07:39:37.550Z,96428.28
2018-08-03T07:42:08.094Z,96419.52
2018-08-03T07:44:38.553Z,96412.58
2018-08-03T07:47:10.338Z,96416.27
2018-08-03T07:49:40.813Z,96422.37
2018-08-03T07:55:47.426Z,96423.42
2018-08-03T07:58:17.842Z,96424.82
2018-08-03T08:00:48.244Z,96420.97
2018-08-03T08:03:18.762Z,96420.45
2018-08-03T08:05:49.344Z,96416.13
2018-08-03T08:08:20.051Z,96412.58
2018-08-03T08:10:50.562Z,96416.17
2018-08-03T08:13:21.560Z,96415.83
2018-08-03T08:15:52.299Z,96416.42
2018-08-03T08:18:22.746Z,96425.70
2018-08-03T08:20:53.096Z,96422.01
2018-08-03T08:23:23.870Z,96419.44
2018-08-03T08:25:55.160Z,96422.48
2018-08-03T08:28:25.637Z,96423.83
2018-08-03T08:31:37.285Z,96415.02
2018-08-03T08:34:07.948Z,96423.69
2018-08-03T08:36:38.686Z,96409.70
2018-08-03T08:39:12.617Z,96411.64
2018-08-03T08:41:43.841Z,96417.55
2018-08-03T08:44:14.686Z,96410.67
2018-08-03T08:46:45.103Z,96410.75
2018-08-03T08:49:15.568Z,96409.32
2018-08-03T08:51:46.489Z,96412.86
2018-08-03T08:54:16.989Z,96414.42
2018-08-03T08:56:47.691Z,96415.08
2018-08-03T08:59:18.099Z,96397.61
2018-08-03T09:01:48.499Z,96407.77
2018-08-03T09:04:19.001Z,96393.16
2018-08-03T09:06:49.713Z,96400.91
2018-08-03T09:09:20.429Z,96396.05
2018-08-03T09:11:51.763Z,96396.67
2018-08-03T09:14:22.198Z,96395.56
2018-08-03T09:16:52.598Z,96397.23
2018-08-03T09:19:23.056Z,96405.70
2018-08-03T09:21:53.706Z,96383.17
2018-08-03T09:24:24.156Z,96382.69
2018-08-03T09:26:54.710Z,96377.80
2018-08-03T09:29:25.346Z,96380.58
2018-08-03T09:31:55.751Z,96401.67
2018-08-03T09:38:02.956Z,96397.20
2018-08-03T09:40:33.372Z,96379.32
2018-08-03T09:43:03.883Z,96368.39
2018-08-03T09:45:34.490Z,96372.35
2018-08-03T09:48:04.922Z,96371.86
2018-08-03T09:50:35.674Z,96381.20
2018-08-03T09:53:06.164Z,96365.65
2018-08-03T09:55:36.628Z,96365.10
2018-08-03T09:58:07.195Z,96357.11
2018-08-03T10:04:14.030Z,96355.91
2018-08-03T10:06:44.872Z,96354.64
2018-08-03T10:09:15.888Z,96353.53
2018-08-03T10:11:46.380Z,96356.30
2018-08-03T10:14:16.894Z,96349.39
2018-08-03T10:16:47.298Z,96345.17
2018-08-03T10:19:17.939Z,96340.84
2018-08-03T10:21:48.338Z,96330.25
2018-08-03T10:24:18.979Z,96341.98
2018-08-03T10:26:49.407Z,96337.16
2018-08-03T10:29:20.038Z,96339.22
2018-08-03T10:31:50.500Z,96331.02
2018-08-03T10:34:20.688Z,96342.01
2018-08-03T10:36:51.063Z,96329.62
2018-08-03T10:39:21.243Z,96343.55
2018-08-03T10:41:51.527Z,96378.84
2018-08-03T10:44:21.694Z,96336.27
2018-08-03T10:46:51.880Z,96326.41
2018-08-03T10:49:22.092Z,96328.00
2018-08-03T10:51:52.615Z,96333.03
2018-08-03T10:54:23.124Z,96322.58
2018-08-03T10:56:53.284Z,96318.13
2018-08-03T10:59:23.449Z,96345.72
2018-08-03T11:01:53.733Z,96328.81
2018-08-03T11:04:23.958Z,96311.65
2018-08-03T11:06:54.322Z,96306.36
2018-08-03T11:09:24.659Z,96304.77
2018-08-03T11:11:54.789Z,96297.83
2018-08-03T11:14:25.074Z,96311.03
2018-08-03T11:16:55.387Z,96306.19
2018-08-03T11:19:25.544Z,96307.81
2018-08-03T11:21:55.606Z,96303.78
2018-08-03T11:24:25.728Z,96293.59
2018-08-03T11:27:36.426Z,96298.02
2018-08-03T11:30:08.667Z,96292.45
2018-08-03T11:32:39.204Z,96298.92
2018-08-03T11:35:10.368Z,96282.86
2018-08-03T11:37:40.664Z,96288.56
2018-08-03T11:40:10.842Z,96284.09
2018-08-03T11:42:40.974Z,96278.11
2018-08-03T11:45:11.904Z,96276.74
2018-08-03T11:47:42.021Z,96283.49
2018-08-03T11:50:12.195Z,96281.80
2018-08-03T11:52:42.346Z,96279.94
2018-08-03T11:55:12.506Z,96274.11
2018-08-03T11:57:43.090Z,96283.48
2018-08-03T12:00:13.738Z,96277.20
2018-08-03T12:02:44.352Z,96271.73
2018-08-03T12:05:14.444Z,96272.89
2018-08-03T12:07:44.590Z,96282.78
2018-08-03T12:10:14.794Z,96267.79
2018-08-03T12:12:44.917Z,96260.69
2018-08-03T12:18:50.601Z,96265.29
2018-08-03T12:21:20.755Z,96265.99
2018-08-03T12:23:50.948Z,96247.02
2018-08-03T12:26:21.211Z,96244.91
2018-08-03T12:28:51.354Z,96249.22
2018-08-03T12:31:21.705Z,96254.76
2018-08-03T12:33:51.830Z,96236.80
2018-08-03T12:36:22.033Z,96245.17
2018-08-03T12:38:52.135Z,96239.91
2018-08-03T12:41:22.591Z,96246.62
2018-08-03T12:44:34.815Z,96231.44
2018-08-03T12:47:05.007Z,96234.27
2018-08-03T12:49:35.796Z,96239.17
2018-08-03T12:52:05.929Z,96243.37
2018-08-03T12:54:36.495Z,96223.91
2018-08-03T12:57:37.330Z,96223.81
2018-08-03T13:00:08.229Z,96222.33
2018-08-03T13:02:38.567Z,96219.23
2018-08-03T13:05:09.580Z,96216.98
2018-08-03T13:07:39.840Z,96215.39
2018-08-03T13:13:46.235Z,96214.00
2018-08-03T13:16:16.511Z,96215.19
2018-08-03T13:18:46.644Z,96216.20
2018-08-03T13:21:33.881Z,96203.15
2018-08-03T13:24:04.673Z,96204.96
2018-08-03T13:26:35.303Z,96213.13
2018-08-03T13:29:05.639Z,96212.59
2018-08-03T13:31:36.629Z,96211.15
2018-08-03T13:34:07.020Z,96206.70
2018-08-03T13:36:37.272Z,96195.69
2018-08-03T13:39:09.458Z,96197.66
2018-08-03T13:41:40.279Z,96202.69
2018-08-03T13:44:10.667Z,96199.86
2018-08-03T13:46:41.210Z,96210.64
2018-08-03T13:49:11.671Z,96188.50
2018-08-03T13:51:41.804Z,96184.05
2018-08-03T13:54:11.900Z,96182.89
2018-08-03T13:56:42.019Z,96172.97
2018-08-03T13:59:12.380Z,96188.64
2018-08-03T14:01:59.591Z,96182.80
2018-08-03T14:04:29.862Z,96169.31
2018-08-03T14:07:00.039Z,96177.26
2018-08-03T14:09:30.395Z,96178.86
2018-08-03T14:12:00.537Z,96180.20
2018-08-03T14:14:31.103Z,96169.09
2018-08-03T14:17:01.267Z,96170.05
2018-08-03T14:19:31.449Z,96170.20
2018-08-03T14:22:01.765Z,96164.27
2018-08-03T14:24:32.279Z,96172.78
2018-08-03T14:27:02.989Z,96159.91
2018-08-03T14:29:33.345Z,96162.31
2018-08-03T14:32:04.645Z,96157.44
2018-08-03T14:34:35.188Z,96156.66
2018-08-03T14:37:05.389Z,96157.16
2018-08-03T14:39:36.208Z,96165.78
2018-08-03T14:42:07.414Z,96154.23
2018-08-03T14:44:38.903Z,96149.72
2018-08-03T14:47:09.363Z,96148.56
2018-08-03T14:49:40.023Z,96157.16
2018-08-03T14:52:10.827Z,96143.81
2018-08-03T14:54:41.435Z,96152.51
2018-08-03T14:57:12.455Z,96145.10
2018-08-03T14:59:42.963Z,96146.33
2018-08-03T15:02:13.670Z,96140.03
2018-08-03T15:04:44.216Z,96145.65
2018-08-03T15:07:14.390Z,96141.84
2018-08-03T15:09:44.508Z,96143.69
2018-08-03T15:12:15.041Z,96139.48
2018-08-03T15:14:45.161Z,96134.26
2018-08-03T15:17:15.448Z,96136.16
2018-08-03T15:19:45.609Z,96126.33
2018-08-03T15:22:15.949Z,96139.60
2018-08-03T15:24:46.079Z,96139.09
2018-08-03T15:27:16.313Z,96129.31
2018-08-03T15:29:46.461Z,96124.54
2018-08-03T15:32:16.643Z,96125.11
2018-08-03T15:34:46.801Z,96130.10
2018-08-03T15:37:17.755Z,96131.64
2018-08-03T15:39:48.004Z,96119.07
2018-08-03T15:42:18.929Z,96127.75
2018-08-03T15:44:49.097Z,96120.91
2018-08-03T15:47:19.727Z,96116.55
2018-08-03T15:49:50.091Z,96119.02
2018-08-03T15:52:20.785Z,96099.03
2018-08-03T15:54:50.883Z,96103.99
2018-08-03T15:57:21.096Z,96108.70
2018-08-03T15:59:51.280Z,96093.44
2018-08-03T16:02:21.567Z,96093.00
2018-08-03T16:04:51.653Z,96095.05
2018-08-03T16:07:21.879Z,96092.88
2018-08-03T16:09:52.024Z,96088.33
2018-08-03T16:12:22.243Z,96072.33
2018-08-03T16:14:52.489Z,96086.25
2018-08-03T16:17:22.655Z,96076.59
2018-08-03T16:19:52.781Z,96087.14
2018-08-03T16:22:22.963Z,96082.09
2018-08-03T16:24:53.105Z,96080.38
2018-08-03T16:27:23.924Z,96077.77
2018-08-03T16:29:54.844Z,96073.02
2018-08-03T16:32:24.973Z,96076.09
2018-08-03T16:34:55.531Z,96077.97
2018-08-03T16:37:25.745Z,96093.26
2018-08-03T16:39:56.075Z,96072.64
2018-08-03T16:42:26.469Z,96081.40
2018-08-03T16:44:56.695Z,96080.72
2018-08-03T16:47:27.151Z,96080.30
2018-08-03T16:49:57.301Z,96086.62
2018-08-03T16:52:27.507Z,96080.54
2018-08-03T16:54:57.832Z,96084.88
2018-08-03T16:57:28.063Z,96085.64
2018-08-03T16:59:58.340Z,96084.95
2018-08-03T17:02:28.559Z,96087.16
2018-08-03T17:04:58.732Z,96090.59
2018-08-03T17:07:29.089Z,96083.51
2018-08-03T17:09:59.225Z,96084.86
2018-08-03T17:13:33.788Z,96089.00
2018-08-03T17:16:03.943Z,96088.00
2018-08-03T17:18:34.156Z,96084.83
2018-08-03T17:21:04.478Z,96086.27
2018-08-03T17:23:34.627Z,96086.47
2018-08-03T17:26:04.887Z,96099.29
2018-08-03T17:28:35.194Z,96095.06
2018-08-03T17:31:05.376Z,96109.77
2018-08-03T17:34:36.766Z,96103.12
2018-08-03T17:37:07.289Z,96095.01
2018-08-03T17:39:38.052Z,96095.23
2018-08-03T17:42:08.577Z,96101.23
2018-08-03T17:44:38.710Z,96097.09
2018-08-03T17:50:45.318Z,96102.81
2018-08-03T17:53:15.590Z,96105.50
2018-08-03T17:55:45.662Z,96105.55
2018-08-03T17:58:15.806Z,96100.69
2018-08-03T18:00:46.000Z,96098.17
2018-08-03T18:03:16.378Z,96102.14
2018-08-03T18:05:46.512Z,96110.95
2018-08-03T18:08:16.749Z,96110.36
2018-08-03T18:10:46.890Z,96102.57
2018-08-03T18:13:17.052Z,96108.52
2018-08-03T18:15:47.670Z,96105.03
2018-08-03T18:18:17.951Z,96118.47
2018-08-03T18:20:48.186Z,96106.14
2018-08-03T18:23:18.326Z,96107.45
2018-08-03T18:25:48.522Z,96119.69
2018-08-03T18:28:19.033Z,96121.73
2018-08-03T18:30:49.362Z,96124.06
2018-08-03T18:33:19.470Z,96122.18
2018-08-03T18:35:49.702Z,96135.06
2018-08-03T18:38:19.905Z,96126.65
2018-08-03T18:40:50.204Z,96132.04
2018-08-03T18:43:20.400Z,96127.08
2018-08-03T18:45:50.552Z,96125.06
2018-08-03T18:48:20.720Z,96125.19
2018-08-03T18:50:51.044Z,96133.38
2018-08-03T18:53:21.517Z,96128.42
2018-08-03T18:55:51.758Z,96132.81
2018-08-03T18:58:21.927Z,96129.79
2018-08-03T19:00:52.184Z,96132.24
2018-08-03T19:03:22.740Z,96131.13
2018-08-03T19:06:35.278Z,96134.30
2018-08-03T19:09:08.111Z,96135.72
2018-08-03T19:11:38.361Z,96142.74
2018-08-03T19:14:08.576Z,96142.75
2018-08-03T19:16:38.984Z,96145.94
2018-08-03T19:19:10.093Z,96141.59
2018-08-03T19:21:40.770Z,96150.28
2018-08-03T19:24:11.381Z,96151.37
2018-08-03T19:26:41.953Z,96151.87
2018-08-03T19:29:12.564Z,96151.36
2018-08-03T19:31:43.140Z,96159.52
2018-08-03T19:34:13.300Z,96160.11
2018-08-03T19:36:43.946Z,96163.07
2018-08-03T19:39:14.426Z,96167.87
2018-08-03T19:41:45.125Z,96165.70
2018-08-03T19:44:15.924Z,96170.56
2018-08-03T19:46:46.580Z,96170.69
2018-08-03T19:49:16.976Z,96175.59
2018-08-03T19:51:47.714Z,96171.47
2018-08-03T19:57:54.324Z,96169.77
2018-08-03T20:00:24.485Z,96173.60
2018-08-03T20:02:55.012Z,96168.45
2018-08-03T20:05:26.437Z,96183.91
2018-08-03T20:07:57.587Z,96174.55
2018-08-03T20:14:38.314Z,96173.97
2018-08-03T20:17:09.075Z,96165.50
2018-08-03T20:19:39.780Z,96169.11
2018-08-03T20:22:17.109Z,96168.75
2018-08-03T20:24:48.049Z,96173.44
2018-08-03T20:27:18.629Z,96174.80
2018-08-03T20:29:49.129Z,96182.42
2018-08-03T20:32:19.624Z,96173.05
2018-08-03T20:34:51.204Z,96178.70
2018-08-03T20:37:21.794Z,96178.00
2018-08-03T20:39:52.942Z,96176.22
2018-08-03T20:42:23.728Z,96177.44
2018-08-03T20:44:54.265Z,96180.97
2018-08-03T20:47:24.756Z,96181.95
2018-08-03T20:49:55.249Z,96183.93
2018-08-03T20:52:25.894Z,96187.51
2018-08-03T20:54:56.383Z,96182.48
2018-08-03T20:57:26.882Z,96184.22
2018-08-03T20:59:57.423Z,96193.20
2018-08-03T21:02:27.952Z,96184.99
2018-08-03T21:04:58.717Z,96194.26
2018-08-03T21:07:29.339Z,96199.08
2018-08-03T21:09:59.911Z,96192.45
2018-08-03T21:12:30.381Z,96199.03
2018-08-03T21:15:01.255Z,96199.75
2018-08-03T21:17:31.795Z,96203.89
2018-08-03T21:20:02.391Z,96203.39
2018-08-03T21:22:32.911Z,96205.30
2018-08-03T21:25:03.453Z,96199.95
2018-08-03T21:27:34.261Z,96203.52
2018-08-03T21:30:05.617Z,96203.81
2018-08-03T21:32:36.269Z,96210.72
2018-08-03T21:35:07.163Z,96206.81
2018-08-03T21:37:38.418Z,96202.89
2018-08-03T21:40:09.303Z,96202.35
2018-08-03T21:42:39.829Z,96208.70
2018-08-03T21:45:10.383Z,96205.16
2018-08-03T21:48:34.512Z,96206.77
2018-08-03T21:51:05.365Z,96205.02
2018-08-03T21:53:35.743Z,96207.20
2018-08-03T21:56:06.407Z,96203.13
2018-08-03T21:58:37.033Z,96201.81
2018-08-03T22:01:12.385Z,96200.48
2018-08-03T22:03:43.207Z,96203.75
2018-08-03T22:06:13.637Z,96203.60
2018-08-03T22:08:44.170Z,96205.58
2018-08-03T22:11:14.983Z,96208.09
2018-08-03T22:13:45.404Z,96197.09
2018-08-03T22:16:16.187Z,96201.38
2018-08-03T22:18:46.549Z,96210.04
2018-08-03T22:21:17.533Z,96204.07
2018-08-03T22:23:48.011Z,96201.39
2018-08-03T22:26:18.707Z,96201.90
2018-08-03T22:28:49.575Z,96198.68
2018-08-03T22:31:20.390Z,96188.13
2018-08-03T22:33:50.984Z,96199.56
2018-08-03T22:36:21.489Z,96192.16
2018-08-03T22:38:51.991Z,96191.30
2018-08-03T22:41:22.485Z,96191.52
2018-08-03T22:43:53.047Z,96185.86
2018-08-03T22:46:25.271Z,96186.28
2018-08-03T22:48:55.947Z,96194.16
2018-08-03T22:51:27.047Z,96191.87
2018-08-03T22:53:57.867Z,96185.77
2018-08-03T22:56:28.302Z,96188.71
2018-08-03T22:58:58.873Z,96192.48
2018-08-03T23:01:29.355Z,96186.38
2018-08-03T23:03:59.860Z,96191.27
2018-08-03T23:06:30.350Z,96186.23
2018-08-03T23:09:01.025Z,96189.28
2018-08-03T23:11:31.570Z,96191.77
2018-08-03T23:14:02.143Z,96191.02
2018-08-03T23:16:32.736Z,96190.22
2018-08-03T23:19:03.161Z,96181.27
2018-08-03T23:21:33.607Z,96183.84
2018-08-03T23:24:04.100Z,96181.17
2018-08-03T23:26:34.625Z,96181.99
2018-08-03T23:29:07.070Z,96179.59
2018-08-03T23:31:38.058Z,96179.20
2018-08-03T23:34:08.538Z,96177.27
2018-08-03T23:36:39.031Z,96170.17
2018-08-03T23:39:10.264Z,96169.12
2018-08-03T23:41:40.847Z,96173.73
2018-08-03T23:44:12.113Z,96171.41
2018-08-03T23:46:42.555Z,96175.50
2018-08-03T23:49:13.017Z,96172.30
2018-08-03T23:51:43.515Z,96170.56
2018-08-03T23:54:14.159Z,96173.70
2018-08-03T23:56:44.591Z,96165.57
2018-08-03T23:59:15.033Z,96171.12
